sensor_id;sensor_type;location;lat;lon;timestamp;temperature;humidity
7196;DHT22;3639;51.308;5.624;2022-07-30T00:02:21;18.30;99.90
7196;DHT22;3639;51.308;5.624;2022-07-30T00:04:47;18.20;99.90
7196;DHT22;3639;51.308;5.624;2022-07-30T00:07:13;18.20;99.90
7196;DHT22;3639;51.308;5.624;2022-07-30T00:09:40;18.10;99.90
7196;DHT22;3639;51.308;5.624;2022-07-30T00:12:06;18.10;99.90
7196;DHT22;3639;51.308;5.624;2022-07-30T00:14:33;18.10;99.90
7196;DHT22;3639;51.308;5.624;2022-07-30T00:17:03;18.00;99.90
7196;DHT22;3639;51.308;5.624;2022-07-30T00:19:29;18.00;99.90
7196;DHT22;3639;51.308;5.624;2022-07-30T00:21:55;17.90;99.90
7196;DHT22;3639;51.308;5.624;2022-07-30T00:24:22;17.90;99.90
7196;DHT22;3639;51.308;5.624;2022-07-30T00:26:48;17.80;99.90
7196;DHT22;3639;51.308;5.624;2022-07-30T00:29:14;17.80;99.90
7196;DHT22;3639;51.308;5.624;2022-07-30T00:31:40;17.80;99.90
7196;DHT22;3639;51.308;5.624;2022-07-30T00:34:06;17.70;99.90
7196;DHT22;3639;51.308;5.624;2022-07-30T00:36:32;17.70;99.90
7196;DHT22;3639;51.308;5.624;2022-07-30T00:38:58;17.70;99.90
7196;DHT22;3639;51.308;5.624;2022-07-30T00:41:24;17.70;99.90
7196;DHT22;3639;51.308;5.624;2022-07-30T00:43:50;17.60;99.90
7196;DHT22;3639;51.308;5.624;2022-07-30T00:46:16;17.60;99.90
7196;DHT22;3639;51.308;5.624;2022-07-30T00:48:42;17.60;99.90
7196;DHT22;3639;51.308;5.624;2022-07-30T00:51:08;17.50;99.90
7196;DHT22;3639;51.308;5.624;2022-07-30T00:53:34;17.50;99.90
7196;DHT22;3639;51.308;5.624;2022-07-30T00:56:01;17.50;99.90
7196;DHT22;3639;51.308;5.624;2022-07-30T00:58:27;17.40;99.90
7196;DHT22;3639;51.308;5.624;2022-07-30T01:00:53;17.40;99.90
7196;DHT22;3639;51.308;5.624;2022-07-30T01:03:19;17.40;99.90
7196;DHT22;3639;51.308;5.624;2022-07-30T01:05:45;17.40;99.90
7196;DHT22;3639;51.308;5.624;2022-07-30T01:08:11;17.40;99.90
7196;DHT22;3639;51.308;5.624;2022-07-30T01:10:37;17.30;99.90
7196;DHT22;3639;51.308;5.624;2022-07-30T01:13:04;17.30;99.90
7196;DHT22;3639;51.308;5.624;2022-07-30T01:15:34;17.30;99.90
7196;DHT22;3639;51.308;5.624;2022-07-30T01:18:03;17.20;99.90
7196;DHT22;3639;51.308;5.624;2022-07-30T01:20:35;17.20;99.90
7196;DHT22;3639;51.308;5.624;2022-07-30T01:23:42;17.20;99.90
7196;DHT22;3639;51.308;5.624;2022-07-30T01:26:17;17.10;99.90
7196;DHT22;3639;51.308;5.624;2022-07-30T01:28:52;17.10;99.90
7196;DHT22;3639;51.308;5.624;2022-07-30T01:31:20;17.10;99.90
7196;DHT22;3639;51.308;5.624;2022-07-30T01:33:47;17.00;99.90
7196;DHT22;3639;51.308;5.624;2022-07-30T01:36:17;17.00;99.90
7196;DHT22;3639;51.308;5.624;2022-07-30T01:38:46;16.90;99.90
7196;DHT22;3639;51.308;5.624;2022-07-30T01:41:13;16.90;99.90
7196;DHT22;3639;51.308;5.624;2022-07-30T01:43:40;16.90;99.90
7196;DHT22;3639;51.308;5.624;2022-07-30T01:46:07;16.90;99.90
7196;DHT22;3639;51.308;5.624;2022-07-30T01:48:37;16.80;99.90
7196;DHT22;3639;51.308;5.624;2022-07-30T01:51:08;16.80;99.90
7196;DHT22;3639;51.308;5.624;2022-07-30T01:53:37;16.80;99.90
7196;DHT22;3639;51.308;5.624;2022-07-30T01:56:04;16.80;99.90
7196;DHT22;3639;51.308;5.624;2022-07-30T01:58:35;16.70;99.90
7196;DHT22;3639;51.308;5.624;2022-07-30T02:01:02;16.70;99.90
7196;DHT22;3639;51.308;5.624;2022-07-30T02:03:28;16.70;99.90
7196;DHT22;3639;51.308;5.624;2022-07-30T02:06:08;16.60;99.90
7196;DHT22;3639;51.308;5.624;2022-07-30T02:08:43;16.60;99.90
7196;DHT22;3639;51.308;5.624;2022-07-30T02:11:14;16.60;99.90
7196;DHT22;3639;51.308;5.624;2022-07-30T02:14:07;16.50;99.90
7196;DHT22;3639;51.308;5.624;2022-07-30T02:16:39;16.50;99.90
7196;DHT22;3639;51.308;5.624;2022-07-30T02:19:13;16.50;99.90
7196;DHT22;3639;51.308;5.624;2022-07-30T02:21:44;16.40;99.90
7196;DHT22;3639;51.308;5.624;2022-07-30T02:24:14;16.40;99.90
7196;DHT22;3639;51.308;5.624;2022-07-30T02:26:44;16.30;99.90
7196;DHT22;3639;51.308;5.624;2022-07-30T02:29:13;16.30;99.90
7196;DHT22;3639;51.308;5.624;2022-07-30T02:31:41;16.30;99.90
7196;DHT22;3639;51.308;5.624;2022-07-30T02:34:08;16.30;99.90
7196;DHT22;3639;51.308;5.624;2022-07-30T02:36:36;16.20;99.90
7196;DHT22;3639;51.308;5.624;2022-07-30T02:39:03;16.20;99.90
7196;DHT22;3639;51.308;5.624;2022-07-30T02:41:30;16.10;99.90
7196;DHT22;3639;51.308;5.624;2022-07-30T02:43:56;16.10;99.90
7196;DHT22;3639;51.308;5.624;2022-07-30T02:46:24;16.10;99.90
7196;DHT22;3639;51.308;5.624;2022-07-30T02:48:52;16.10;99.90
7196;DHT22;3639;51.308;5.624;2022-07-30T02:51:20;16.00;99.90
7196;DHT22;3639;51.308;5.624;2022-07-30T02:53:48;16.00;99.90
7196;DHT22;3639;51.308;5.624;2022-07-30T02:56:15;16.00;99.90
7196;DHT22;3639;51.308;5.624;2022-07-30T02:58:43;15.90;99.90
7196;DHT22;3639;51.308;5.624;2022-07-30T03:01:10;15.90;99.90
7196;DHT22;3639;51.308;5.624;2022-07-30T03:03:38;15.90;99.90
7196;DHT22;3639;51.308;5.624;2022-07-30T03:06:05;15.80;99.90
7196;DHT22;3639;51.308;5.624;2022-07-30T03:08:32;15.80;99.90
7196;DHT22;3639;51.308;5.624;2022-07-30T03:10:59;15.80;99.90
7196;DHT22;3639;51.308;5.624;2022-07-30T03:13:25;15.80;99.90
7196;DHT22;3639;51.308;5.624;2022-07-30T03:15:52;15.80;99.90
7196;DHT22;3639;51.308;5.624;2022-07-30T03:18:19;15.70;99.90
7196;DHT22;3639;51.308;5.624;2022-07-30T03:20:49;15.70;99.90
7196;DHT22;3639;51.308;5.624;2022-07-30T03:23:17;15.70;99.90
7196;DHT22;3639;51.308;5.624;2022-07-30T03:25:51;15.70;99.90
7196;DHT22;3639;51.308;5.624;2022-07-30T03:28:20;15.70;99.90
7196;DHT22;3639;51.308;5.624;2022-07-30T03:30:46;15.60;99.90
7196;DHT22;3639;51.308;5.624;2022-07-30T03:33:13;15.60;99.90
7196;DHT22;3639;51.308;5.624;2022-07-30T03:35:41;15.60;99.90
7196;DHT22;3639;51.308;5.624;2022-07-30T03:38:11;15.60;99.90
7196;DHT22;3639;51.308;5.624;2022-07-30T03:40:38;15.50;99.90
7196;DHT22;3639;51.308;5.624;2022-07-30T03:43:07;15.50;99.90
7196;DHT22;3639;51.308;5.624;2022-07-30T03:45:35;15.40;99.90
7196;DHT22;3639;51.308;5.624;2022-07-30T03:48:01;15.40;99.90
7196;DHT22;3639;51.308;5.624;2022-07-30T03:50:28;15.40;99.90
7196;DHT22;3639;51.308;5.624;2022-07-30T03:52:55;15.40;99.90
7196;DHT22;3639;51.308;5.624;2022-07-30T03:55:22;15.30;99.90
7196;DHT22;3639;51.308;5.624;2022-07-30T03:57:48;15.30;99.90
7196;DHT22;3639;51.308;5.624;2022-07-30T04:00:15;15.30;99.90
7196;DHT22;3639;51.308;5.624;2022-07-30T04:02:45;15.20;99.90
7196;DHT22;3639;51.308;5.624;2022-07-30T04:05:12;15.30;99.90
7196;DHT22;3639;51.308;5.624;2022-07-30T04:07:38;15.20;99.90
7196;DHT22;3639;51.308;5.624;2022-07-30T04:10:05;15.20;99.90
7196;DHT22;3639;51.308;5.624;2022-07-30T04:12:31;15.10;99.90
7196;DHT22;3639;51.308;5.624;2022-07-30T04:14:57;15.10;99.90
7196;DHT22;3639;51.308;5.624;2022-07-30T04:17:39;15.10;99.90
7196;DHT22;3639;51.308;5.624;2022-07-30T04:20:12;15.10;99.90
7196;DHT22;3639;51.308;5.624;2022-07-30T04:22:41;15.10;99.90
7196;DHT22;3639;51.308;5.624;2022-07-30T04:25:08;15.10;99.90
7196;DHT22;3639;51.308;5.624;2022-07-30T04:27:35;15.10;99.90
7196;DHT22;3639;51.308;5.624;2022-07-30T04:30:03;15.10;99.90
7196;DHT22;3639;51.308;5.624;2022-07-30T04:32:30;15.10;99.90
7196;DHT22;3639;51.308;5.624;2022-07-30T04:34:56;15.10;99.90
7196;DHT22;3639;51.308;5.624;2022-07-30T04:37:24;15.10;99.90
7196;DHT22;3639;51.308;5.624;2022-07-30T04:39:51;15.10;99.90
7196;DHT22;3639;51.308;5.624;2022-07-30T04:42:26;15.20;99.90
7196;DHT22;3639;51.308;5.624;2022-07-30T04:44:53;15.20;99.90
7196;DHT22;3639;51.308;5.624;2022-07-30T04:47:20;15.20;99.90
7196;DHT22;3639;51.308;5.624;2022-07-30T04:49:46;15.20;99.90
7196;DHT22;3639;51.308;5.624;2022-07-30T04:52:13;15.20;99.90
7196;DHT22;3639;51.308;5.624;2022-07-30T04:54:47;15.20;99.90
7196;DHT22;3639;51.308;5.624;2022-07-30T04:57:14;15.30;99.90
7196;DHT22;3639;51.308;5.624;2022-07-30T04:59:41;15.30;99.90
7196;DHT22;3639;51.308;5.624;2022-07-30T05:02:08;15.40;99.90
7196;DHT22;3639;51.308;5.624;2022-07-30T05:04:35;15.40;99.90
7196;DHT22;3639;51.308;5.624;2022-07-30T05:07:02;15.40;99.90
7196;DHT22;3639;51.308;5.624;2022-07-30T05:09:29;15.50;99.90
7196;DHT22;3639;51.308;5.624;2022-07-30T05:11:56;15.60;99.90
7196;DHT22;3639;51.308;5.624;2022-07-30T05:14:23;15.60;99.90
7196;DHT22;3639;51.308;5.624;2022-07-30T05:16:50;15.70;99.90
7196;DHT22;3639;51.308;5.624;2022-07-30T05:19:20;15.70;99.90
7196;DHT22;3639;51.308;5.624;2022-07-30T05:21:46;15.70;99.90
7196;DHT22;3639;51.308;5.624;2022-07-30T05:24:11;15.70;99.90
7196;DHT22;3639;51.308;5.624;2022-07-30T05:26:37;15.80;99.90
7196;DHT22;3639;51.308;5.624;2022-07-30T05:29:03;15.80;99.90
7196;DHT22;3639;51.308;5.624;2022-07-30T05:31:29;15.80;99.90
7196;DHT22;3639;51.308;5.624;2022-07-30T05:33:55;15.90;99.90
7196;DHT22;3639;51.308;5.624;2022-07-30T05:36:21;15.90;99.90
7196;DHT22;3639;51.308;5.624;2022-07-30T05:38:48;15.90;99.90
7196;DHT22;3639;51.308;5.624;2022-07-30T05:41:14;15.90;99.90
7196;DHT22;3639;51.308;5.624;2022-07-30T05:43:40;15.90;99.90
7196;DHT22;3639;51.308;5.624;2022-07-30T05:46:06;15.90;99.90
7196;DHT22;3639;51.308;5.624;2022-07-30T05:48:32;16.00;99.90
7196;DHT22;3639;51.308;5.624;2022-07-30T05:51:04;16.00;99.90
7196;DHT22;3639;51.308;5.624;2022-07-30T05:53:30;16.10;99.90
7196;DHT22;3639;51.308;5.624;2022-07-30T05:55:56;16.10;99.90
7196;DHT22;3639;51.308;5.624;2022-07-30T05:58:23;16.10;99.90
7196;DHT22;3639;51.308;5.624;2022-07-30T06:00:49;16.10;99.90
7196;DHT22;3639;51.308;5.624;2022-07-30T06:03:15;16.10;99.90
7196;DHT22;3639;51.308;5.624;2022-07-30T06:05:41;16.20;99.90
7196;DHT22;3639;51.308;5.624;2022-07-30T06:08:08;16.20;99.90
7196;DHT22;3639;51.308;5.624;2022-07-30T06:10:34;16.30;99.90
7196;DHT22;3639;51.308;5.624;2022-07-30T06:13:00;16.40;99.90
7196;DHT22;3639;51.308;5.624;2022-07-30T06:15:26;16.50;99.90
7196;DHT22;3639;51.308;5.624;2022-07-30T06:17:53;16.60;99.90
7196;DHT22;3639;51.308;5.624;2022-07-30T06:20:19;16.60;99.90
7196;DHT22;3639;51.308;5.624;2022-07-30T06:22:46;16.70;99.90
7196;DHT22;3639;51.308;5.624;2022-07-30T06:25:12;16.80;99.90
7196;DHT22;3639;51.308;5.624;2022-07-30T06:27:38;16.90;99.90
7196;DHT22;3639;51.308;5.624;2022-07-30T06:30:06;17.00;99.90
7196;DHT22;3639;51.308;5.624;2022-07-30T06:32:33;17.10;99.90
7196;DHT22;3639;51.308;5.624;2022-07-30T06:35:00;17.10;99.90
7196;DHT22;3639;51.308;5.624;2022-07-30T06:37:26;17.20;99.90
7196;DHT22;3639;51.308;5.624;2022-07-30T06:39:52;17.30;99.90
7196;DHT22;3639;51.308;5.624;2022-07-30T06:42:19;17.30;99.90
7196;DHT22;3639;51.308;5.624;2022-07-30T06:44:44;17.50;99.90
7196;DHT22;3639;51.308;5.624;2022-07-30T06:47:10;17.70;99.90
7196;DHT22;3639;51.308;5.624;2022-07-30T06:49:36;17.90;99.90
7196;DHT22;3639;51.308;5.624;2022-07-30T06:52:03;18.00;99.90
7196;DHT22;3639;51.308;5.624;2022-07-30T06:54:29;18.20;99.90
7196;DHT22;3639;51.308;5.624;2022-07-30T06:56:55;18.30;99.90
7196;DHT22;3639;51.308;5.624;2022-07-30T06:59:21;18.40;99.90
7196;DHT22;3639;51.308;5.624;2022-07-30T07:01:47;18.40;99.90
7196;DHT22;3639;51.308;5.624;2022-07-30T07:04:14;18.50;99.90
7196;DHT22;3639;51.308;5.624;2022-07-30T07:06:40;18.60;99.90
7196;DHT22;3639;51.308;5.624;2022-07-30T07:09:06;18.70;99.90
7196;DHT22;3639;51.308;5.624;2022-07-30T07:11:32;18.90;99.90
7196;DHT22;3639;51.308;5.624;2022-07-30T07:13:58;19.20;99.90
7196;DHT22;3639;51.308;5.624;2022-07-30T07:16:23;19.40;99.90
7196;DHT22;3639;51.308;5.624;2022-07-30T07:18:53;19.60;99.90
7196;DHT22;3639;51.308;5.624;2022-07-30T07:21:19;19.80;99.90
7196;DHT22;3639;51.308;5.624;2022-07-30T07:23:46;19.60;99.90
7196;DHT22;3639;51.308;5.624;2022-07-30T07:26:13;19.50;99.90
7196;DHT22;3639;51.308;5.624;2022-07-30T07:28:39;19.50;99.90
7196;DHT22;3639;51.308;5.624;2022-07-30T07:31:06;19.70;99.90
7196;DHT22;3639;51.308;5.624;2022-07-30T07:33:32;19.80;99.90
7196;DHT22;3639;51.308;5.624;2022-07-30T07:35:58;19.80;99.90
7196;DHT22;3639;51.308;5.624;2022-07-30T07:38:24;19.90;99.90
7196;DHT22;3639;51.308;5.624;2022-07-30T07:40:50;19.80;99.90
7196;DHT22;3639;51.308;5.624;2022-07-30T07:43:16;19.80;99.90
7196;DHT22;3639;51.308;5.624;2022-07-30T07:45:43;19.90;99.90
7196;DHT22;3639;51.308;5.624;2022-07-30T07:48:10;20.10;99.90
7196;DHT22;3639;51.308;5.624;2022-07-30T07:50:36;20.30;99.90
7196;DHT22;3639;51.308;5.624;2022-07-30T07:53:02;20.40;99.90
7196;DHT22;3639;51.308;5.624;2022-07-30T07:55:28;20.60;99.90
7196;DHT22;3639;51.308;5.624;2022-07-30T07:57:55;20.70;99.90
7196;DHT22;3639;51.308;5.624;2022-07-30T08:00:21;20.70;99.90
7196;DHT22;3639;51.308;5.624;2022-07-30T08:02:47;20.70;99.90
7196;DHT22;3639;51.308;5.624;2022-07-30T08:05:14;20.70;99.90
7196;DHT22;3639;51.308;5.624;2022-07-30T08:07:41;20.90;99.90
7196;DHT22;3639;51.308;5.624;2022-07-30T08:10:08;21.00;99.90
7196;DHT22;3639;51.308;5.624;2022-07-30T08:12:34;21.00;99.90
7196;DHT22;3639;51.308;5.624;2022-07-30T08:15:00;21.10;99.90
7196;DHT22;3639;51.308;5.624;2022-07-30T08:17:27;21.20;99.90
7196;DHT22;3639;51.308;5.624;2022-07-30T08:19:57;21.30;99.90
7196;DHT22;3639;51.308;5.624;2022-07-30T08:22:24;21.20;99.90
7196;DHT22;3639;51.308;5.624;2022-07-30T08:24:50;21.30;99.90
7196;DHT22;3639;51.308;5.624;2022-07-30T08:27:16;21.50;99.90
7196;DHT22;3639;51.308;5.624;2022-07-30T08:29:42;21.60;99.90
7196;DHT22;3639;51.308;5.624;2022-07-30T08:32:08;21.70;99.90
7196;DHT22;3639;51.308;5.624;2022-07-30T08:34:34;21.80;99.90
7196;DHT22;3639;51.308;5.624;2022-07-30T08:37:00;21.80;99.90
7196;DHT22;3639;51.308;5.624;2022-07-30T08:39:26;21.90;99.90
7196;DHT22;3639;51.308;5.624;2022-07-30T08:41:52;21.90;99.90
7196;DHT22;3639;51.308;5.624;2022-07-30T08:44:19;21.80;99.90
7196;DHT22;3639;51.308;5.624;2022-07-30T08:46:46;21.90;99.90
7196;DHT22;3639;51.308;5.624;2022-07-30T08:49:13;22.00;99.90
7196;DHT22;3639;51.308;5.624;2022-07-30T08:51:43;21.90;99.90
7196;DHT22;3639;51.308;5.624;2022-07-30T08:54:10;21.90;99.90
7196;DHT22;3639;51.308;5.624;2022-07-30T08:56:36;22.00;99.90
7196;DHT22;3639;51.308;5.624;2022-07-30T08:59:03;22.10;99.90
7196;DHT22;3639;51.308;5.624;2022-07-30T09:01:28;22.20;99.90
7196;DHT22;3639;51.308;5.624;2022-07-30T09:03:54;22.40;99.90
7196;DHT22;3639;51.308;5.624;2022-07-30T09:06:20;22.60;99.90
7196;DHT22;3639;51.308;5.624;2022-07-30T09:08:46;22.70;99.90
7196;DHT22;3639;51.308;5.624;2022-07-30T09:11:12;22.70;99.90
7196;DHT22;3639;51.308;5.624;2022-07-30T09:13:39;22.60;99.90
7196;DHT22;3639;51.308;5.624;2022-07-30T09:16:22;22.70;99.90
7196;DHT22;3639;51.308;5.624;2022-07-30T09:18:49;22.80;99.90
7196;DHT22;3639;51.308;5.624;2022-07-30T09:21:19;22.90;99.90
7196;DHT22;3639;51.308;5.624;2022-07-30T09:24:03;22.90;99.90
7196;DHT22;3639;51.308;5.624;2022-07-30T09:26:30;22.80;99.90
7196;DHT22;3639;51.308;5.624;2022-07-30T09:29:30;22.70;99.90
7196;DHT22;3639;51.308;5.624;2022-07-30T09:32:02;22.80;99.90
7196;DHT22;3639;51.308;5.624;2022-07-30T09:34:30;22.90;99.90
7196;DHT22;3639;51.308;5.624;2022-07-30T09:37:19;23.00;99.90
7196;DHT22;3639;51.308;5.624;2022-07-30T09:39:44;23.00;99.90
7196;DHT22;3639;51.308;5.624;2022-07-30T09:42:21;23.00;99.90
7196;DHT22;3639;51.308;5.624;2022-07-30T09:44:51;23.20;99.90
7196;DHT22;3639;51.308;5.624;2022-07-30T09:47:40;23.30;99.90
7196;DHT22;3639;51.308;5.624;2022-07-30T09:50:25;23.40;99.60
7196;DHT22;3639;51.308;5.624;2022-07-30T09:52:52;23.40;99.30
7196;DHT22;3639;51.308;5.624;2022-07-30T09:55:36;23.30;99.90
7196;DHT22;3639;51.308;5.624;2022-07-30T09:58:05;23.40;99.70
7196;DHT22;3639;51.308;5.624;2022-07-30T10:00:33;23.30;99.90
7196;DHT22;3639;51.308;5.624;2022-07-30T10:03:01;23.50;99.80
7196;DHT22;3639;51.308;5.624;2022-07-30T10:05:47;23.50;99.60
7196;DHT22;3639;51.308;5.624;2022-07-30T10:08:14;23.30;99.20
7196;DHT22;3639;51.308;5.624;2022-07-30T10:10:40;23.30;99.80
7196;DHT22;3639;51.308;5.624;2022-07-30T10:13:06;23.30;99.90
7196;DHT22;3639;51.308;5.624;2022-07-30T10:15:35;23.60;99.80
7196;DHT22;3639;51.308;5.624;2022-07-30T10:18:03;23.70;99.30
7196;DHT22;3639;51.308;5.624;2022-07-30T10:20:30;23.80;99.50
7196;DHT22;3639;51.308;5.624;2022-07-30T10:22:57;24.00;99.70
7196;DHT22;3639;51.308;5.624;2022-07-30T10:25:24;24.10;98.30
7196;DHT22;3639;51.308;5.624;2022-07-30T10:27:51;24.20;98.90
7196;DHT22;3639;51.308;5.624;2022-07-30T10:30:17;24.30;98.10
7196;DHT22;3639;51.308;5.624;2022-07-30T10:32:44;24.30;98.40
7196;DHT22;3639;51.308;5.624;2022-07-30T10:35:11;24.30;97.00
7196;DHT22;3639;51.308;5.624;2022-07-30T10:37:48;24.30;97.00
7196;DHT22;3639;51.308;5.624;2022-07-30T10:40:35;24.30;96.70
7196;DHT22;3639;51.308;5.624;2022-07-30T10:48:45;24.30;98.20
7196;DHT22;3639;51.308;5.624;2022-07-30T10:51:11;24.50;97.70
7196;DHT22;3639;51.308;5.624;2022-07-30T10:53:43;24.70;98.50
7196;DHT22;3639;51.308;5.624;2022-07-30T10:56:21;24.70;97.40
7196;DHT22;3639;51.308;5.624;2022-07-30T10:59:05;24.80;97.30
7196;DHT22;3639;51.308;5.624;2022-07-30T11:04:25;24.90;97.10
7196;DHT22;3639;51.308;5.624;2022-07-30T11:07:01;24.90;96.50
7196;DHT22;3639;51.308;5.624;2022-07-30T11:09:39;24.90;97.40
7196;DHT22;3639;51.308;5.624;2022-07-30T11:12:07;25.10;97.10
7196;DHT22;3639;51.308;5.624;2022-07-30T11:17:13;25.20;97.40
7196;DHT22;3639;51.308;5.624;2022-07-30T11:25:37;25.00;96.90
7196;DHT22;3639;51.308;5.624;2022-07-30T11:27:57;25.10;96.90
7196;DHT22;3639;51.308;5.624;2022-07-30T11:32:54;25.50;96.20
7196;DHT22;3639;51.308;5.624;2022-07-30T11:35:30;25.70;95.10
7196;DHT22;3639;51.308;5.624;2022-07-30T11:38:13;25.70;95.00
7196;DHT22;3639;51.308;5.624;2022-07-30T11:48:56;25.70;95.00
7196;DHT22;3639;51.308;5.624;2022-07-30T11:51:22;25.70;94.80
7196;DHT22;3639;51.308;5.624;2022-07-30T11:54:06;25.80;94.40
7196;DHT22;3639;51.308;5.624;2022-07-30T11:56:33;26.00;94.00
7196;DHT22;3639;51.308;5.624;2022-07-30T11:59:06;25.90;94.50
7196;DHT22;3639;51.308;5.624;2022-07-30T12:01:34;25.90;95.10
7196;DHT22;3639;51.308;5.624;2022-07-30T12:04:04;26.20;94.30
7196;DHT22;3639;51.308;5.624;2022-07-30T12:06:31;26.40;93.90
7196;DHT22;3639;51.308;5.624;2022-07-30T12:08:58;26.60;93.70
7196;DHT22;3639;51.308;5.624;2022-07-30T12:11:30;26.70;93.10
7196;DHT22;3639;51.308;5.624;2022-07-30T12:13:57;26.80;93.40
7196;DHT22;3639;51.308;5.624;2022-07-30T12:16:25;26.80;92.80
7196;DHT22;3639;51.308;5.624;2022-07-30T12:18:52;26.80;92.10
7196;DHT22;3639;51.308;5.624;2022-07-30T12:21:18;26.50;92.80
7196;DHT22;3639;51.308;5.624;2022-07-30T12:24:00;26.70;92.00
7196;DHT22;3639;51.308;5.624;2022-07-30T12:26:31;26.70;91.90
7196;DHT22;3639;51.308;5.624;2022-07-30T12:29:03;26.70;91.00
7196;DHT22;3639;51.308;5.624;2022-07-30T12:31:30;26.60;91.10
7196;DHT22;3639;51.308;5.624;2022-07-30T12:33:58;26.70;92.20
7196;DHT22;3639;51.308;5.624;2022-07-30T12:36:28;26.80;91.00
7196;DHT22;3639;51.308;5.624;2022-07-30T12:38:55;26.90;90.70
7196;DHT22;3639;51.308;5.624;2022-07-30T12:41:45;27.10;91.00
7196;DHT22;3639;51.308;5.624;2022-07-30T12:44:10;27.20;91.30
7196;DHT22;3639;51.308;5.624;2022-07-30T12:46:39;27.50;91.00
7196;DHT22;3639;51.308;5.624;2022-07-30T12:49:06;27.50;90.00
7196;DHT22;3639;51.308;5.624;2022-07-30T12:51:36;27.50;89.90
7196;DHT22;3639;51.308;5.624;2022-07-30T12:54:18;27.50;90.30
7196;DHT22;3639;51.308;5.624;2022-07-30T12:56:58;27.50;90.80
7196;DHT22;3639;51.308;5.624;2022-07-30T12:59:25;27.60;89.00
7196;DHT22;3639;51.308;5.624;2022-07-30T13:01:51;27.50;88.70
7196;DHT22;3639;51.308;5.624;2022-07-30T13:04:18;27.60;88.50
7196;DHT22;3639;51.308;5.624;2022-07-30T13:07:05;27.70;90.20
7196;DHT22;3639;51.308;5.624;2022-07-30T13:09:32;27.60;88.10
7196;DHT22;3639;51.308;5.624;2022-07-30T13:11:58;27.70;89.10
7196;DHT22;3639;51.308;5.624;2022-07-30T13:14:24;27.80;88.40
7196;DHT22;3639;51.308;5.624;2022-07-30T13:16:52;27.80;89.40
7196;DHT22;3639;51.308;5.624;2022-07-30T13:19:19;27.80;89.60
7196;DHT22;3639;51.308;5.624;2022-07-30T13:21:45;27.90;89.00
7196;DHT22;3639;51.308;5.624;2022-07-30T13:24:12;27.90;88.80
7196;DHT22;3639;51.308;5.624;2022-07-30T13:26:39;27.80;90.30
7196;DHT22;3639;51.308;5.624;2022-07-30T13:29:07;27.90;88.20
7196;DHT22;3639;51.308;5.624;2022-07-30T13:31:34;27.70;88.80
7196;DHT22;3639;51.308;5.624;2022-07-30T13:34:00;27.50;88.20
7196;DHT22;3639;51.308;5.624;2022-07-30T13:36:26;27.30;87.10
7196;DHT22;3639;51.308;5.624;2022-07-30T13:38:52;27.20;88.30
7196;DHT22;3639;51.308;5.624;2022-07-30T13:41:20;26.90;88.90
7196;DHT22;3639;51.308;5.624;2022-07-30T13:43:46;26.80;89.30
7196;DHT22;3639;51.308;5.624;2022-07-30T13:46:12;26.60;89.00
7196;DHT22;3639;51.308;5.624;2022-07-30T13:48:38;26.50;90.60
7196;DHT22;3639;51.308;5.624;2022-07-30T13:51:04;26.60;89.70
7196;DHT22;3639;51.308;5.624;2022-07-30T13:53:31;26.50;90.50
7196;DHT22;3639;51.308;5.624;2022-07-30T13:55:57;26.40;90.40
7196;DHT22;3639;51.308;5.624;2022-07-30T13:58:26;26.40;90.10
7196;DHT22;3639;51.308;5.624;2022-07-30T14:00:52;26.20;90.10
7196;DHT22;3639;51.308;5.624;2022-07-30T14:03:18;26.30;90.30
7196;DHT22;3639;51.308;5.624;2022-07-30T14:05:43;26.40;90.60
7196;DHT22;3639;51.308;5.624;2022-07-30T14:08:10;26.50;90.60
7196;DHT22;3639;51.308;5.624;2022-07-30T14:10:37;26.70;88.80
7196;DHT22;3639;51.308;5.624;2022-07-30T14:13:06;26.80;90.10
7196;DHT22;3639;51.308;5.624;2022-07-30T14:15:33;26.90;88.80
7196;DHT22;3639;51.308;5.624;2022-07-30T14:18:00;26.90;87.90
7196;DHT22;3639;51.308;5.624;2022-07-30T14:20:27;26.90;87.50
7196;DHT22;3639;51.308;5.624;2022-07-30T14:22:53;26.80;87.80
7196;DHT22;3639;51.308;5.624;2022-07-30T14:25:19;26.80;90.30
7196;DHT22;3639;51.308;5.624;2022-07-30T14:27:46;27.00;89.80
7196;DHT22;3639;51.308;5.624;2022-07-30T14:30:12;27.20;90.30
7196;DHT22;3639;51.308;5.624;2022-07-30T14:32:39;27.30;88.70
7196;DHT22;3639;51.308;5.624;2022-07-30T14:35:06;27.40;87.70
7196;DHT22;3639;51.308;5.624;2022-07-30T14:37:39;27.40;86.40
7196;DHT22;3639;51.308;5.624;2022-07-30T14:40:08;27.50;89.00
7196;DHT22;3639;51.308;5.624;2022-07-30T14:42:36;27.70;87.30
7196;DHT22;3639;51.308;5.624;2022-07-30T14:45:05;27.80;89.40
7196;DHT22;3639;51.308;5.624;2022-07-30T14:47:31;27.80;87.80
7196;DHT22;3639;51.308;5.624;2022-07-30T14:49:58;28.00;86.60
7196;DHT22;3639;51.308;5.624;2022-07-30T14:52:24;28.10;88.20
7196;DHT22;3639;51.308;5.624;2022-07-30T14:54:50;28.20;85.20
7196;DHT22;3639;51.308;5.624;2022-07-30T14:57:16;28.10;84.30
7196;DHT22;3639;51.308;5.624;2022-07-30T14:59:43;28.00;85.50
7196;DHT22;3639;51.308;5.624;2022-07-30T15:02:09;28.00;87.00
7196;DHT22;3639;51.308;5.624;2022-07-30T15:04:35;27.80;85.80
7196;DHT22;3639;51.308;5.624;2022-07-30T15:07:01;27.60;86.00
7196;DHT22;3639;51.308;5.624;2022-07-30T15:09:27;27.40;86.40
7196;DHT22;3639;51.308;5.624;2022-07-30T15:11:54;27.40;86.30
7196;DHT22;3639;51.308;5.624;2022-07-30T15:14:19;27.30;87.20
7196;DHT22;3639;51.308;5.624;2022-07-30T15:16:45;27.30;85.10
7196;DHT22;3639;51.308;5.624;2022-07-30T15:19:12;27.20;85.80
7196;DHT22;3639;51.308;5.624;2022-07-30T15:21:38;27.20;85.90
7196;DHT22;3639;51.308;5.624;2022-07-30T15:24:04;27.30;86.10
7196;DHT22;3639;51.308;5.624;2022-07-30T15:26:30;27.30;86.00
7196;DHT22;3639;51.308;5.624;2022-07-30T15:28:56;27.40;84.30
7196;DHT22;3639;51.308;5.624;2022-07-30T15:31:22;27.30;85.20
7196;DHT22;3639;51.308;5.624;2022-07-30T15:33:48;27.10;86.80
7196;DHT22;3639;51.308;5.624;2022-07-30T15:36:14;27.10;86.40
7196;DHT22;3639;51.308;5.624;2022-07-30T15:38:40;27.00;85.30
7196;DHT22;3639;51.308;5.624;2022-07-30T15:41:06;26.90;85.60
7196;DHT22;3639;51.308;5.624;2022-07-30T15:43:32;26.90;84.90
7196;DHT22;3639;51.308;5.624;2022-07-30T15:45:58;26.90;85.50
7196;DHT22;3639;51.308;5.624;2022-07-30T15:48:24;26.90;85.10
7196;DHT22;3639;51.308;5.624;2022-07-30T15:50:50;26.90;85.60
7196;DHT22;3639;51.308;5.624;2022-07-30T15:53:16;26.90;85.40
7196;DHT22;3639;51.308;5.624;2022-07-30T15:55:42;26.90;85.80
7196;DHT22;3639;51.308;5.624;2022-07-30T15:58:08;26.90;84.60
7196;DHT22;3639;51.308;5.624;2022-07-30T16:00:34;26.90;86.30
7196;DHT22;3639;51.308;5.624;2022-07-30T16:03:00;26.80;84.90
7196;DHT22;3639;51.308;5.624;2022-07-30T16:05:26;26.80;84.70
7196;DHT22;3639;51.308;5.624;2022-07-30T16:07:52;26.80;85.20
7196;DHT22;3639;51.308;5.624;2022-07-30T16:10:18;26.90;85.00
7196;DHT22;3639;51.308;5.624;2022-07-30T16:12:44;26.80;85.50
7196;DHT22;3639;51.308;5.624;2022-07-30T16:15:10;26.80;85.50
7196;DHT22;3639;51.308;5.624;2022-07-30T16:17:35;26.90;85.40
7196;DHT22;3639;51.308;5.624;2022-07-30T16:20:02;26.90;86.30
7196;DHT22;3639;51.308;5.624;2022-07-30T16:22:28;27.00;85.40
7196;DHT22;3639;51.308;5.624;2022-07-30T16:24:54;27.10;84.40
7196;DHT22;3639;51.308;5.624;2022-07-30T16:27:20;27.00;85.10
7196;DHT22;3639;51.308;5.624;2022-07-30T16:29:46;27.00;85.70
7196;DHT22;3639;51.308;5.624;2022-07-30T16:32:12;27.00;86.60
7196;DHT22;3639;51.308;5.624;2022-07-30T16:34:38;27.10;85.40
7196;DHT22;3639;51.308;5.624;2022-07-30T16:37:04;27.30;84.90